createdAt,value
2018-11-14T00:00:26.628Z,10.00
2018-11-14T00:05:25.244Z,11.10
2018-11-14T00:10:23.852Z,7.80
2018-11-14T00:15:23.823Z,8.60
2018-11-14T00:20:22.463Z,8.20
2018-11-14T00:25:21.081Z,10.57
2018-11-14T00:30:21.266Z,4.63
2018-11-14T00:35:19.968Z,10.80
2018-11-14T00:40:19.489Z,5.50
2018-11-14T00:45:20.451Z,8.53
2018-11-14T00:50:19.664Z,10.47
2018-11-14T00:55:21.439Z,8.83
2018-11-14T01:00:21.270Z,6.70
2018-11-14T01:05:20.265Z,8.50
2018-11-14T01:10:20.199Z,11.43
2018-11-14T01:15:20.046Z,16.67
2018-11-14T01:20:19.859Z,11.20
2018-11-14T01:25:18.991Z,15.20
2018-11-14T01:30:19.923Z,13.83
2018-11-14T01:35:18.965Z,13.37
2018-11-14T01:40:19.483Z,21.93
2018-11-14T01:45:18.131Z,12.30
2018-11-14T01:50:16.762Z,17.50
2018-11-14T01:55:16.505Z,16.00
2018-11-14T02:00:16.950Z,17.23
2018-11-14T02:05:15.580Z,16.67
2018-11-14T02:10:15.451Z,12.43
2018-11-14T02:15:18.047Z,15.60
2018-11-14T02:20:16.870Z,12.67
2018-11-14T02:25:16.074Z,14.10
2018-11-14T02:30:17.226Z,13.20
2018-11-14T02:35:15.930Z,9.83
2018-11-14T02:40:17.687Z,11.00
2018-11-14T02:45:16.407Z,9.90
2018-11-14T02:50:16.444Z,9.97
2018-11-14T02:55:16.072Z,16.03
2018-11-14T03:00:16.719Z,10.37
2018-11-14T03:05:15.395Z,9.73
2018-11-14T03:10:15.963Z,14.30
2018-11-14T03:15:17.216Z,21.53
2018-11-14T03:20:17.159Z,14.83
2018-11-14T03:25:15.986Z,8.37
2018-11-14T03:30:15.966Z,11.03
2018-11-14T03:35:15.007Z,12.43
2018-11-14T03:40:15.052Z,21.50
2018-11-14T03:45:14.460Z,18.27
2018-11-14T03:50:13.075Z,15.10
2018-11-14T03:55:11.728Z,16.50
2018-11-14T04:00:12.612Z,12.87
2018-11-14T04:05:11.318Z,14.93
2018-11-14T04:10:11.250Z,14.97
2018-11-14T04:15:11.395Z,17.00
2018-11-14T04:20:12.347Z,10.83
2018-11-14T04:25:13.613Z,15.03
2018-11-14T04:30:14.239Z,15.03
2018-11-14T04:35:14.071Z,22.40
2018-11-14T04:40:17.067Z,16.23
2018-11-14T04:45:19.438Z,16.73
2018-11-14T04:50:21.020Z,15.40
2018-11-14T04:55:20.756Z,18.77
2018-11-14T05:00:20.583Z,15.60
2018-11-14T05:05:20.520Z,18.43
2018-11-14T05:10:21.912Z,17.57
2018-11-14T05:15:22.932Z,22.90
2018-11-14T05:20:22.356Z,22.53
2018-11-14T05:25:21.164Z,20.43
2018-11-14T05:30:20.985Z,21.13
2018-11-14T05:35:19.690Z,23.27
2018-11-14T05:40:19.805Z,15.10
2018-11-14T05:45:21.988Z,13.00
2018-11-14T05:50:21.723Z,17.57
2018-11-14T05:55:20.547Z,23.50
2018-11-14T06:00:35.327Z,17.43
2018-11-14T06:05:33.983Z,19.87
2018-11-14T06:10:32.780Z,20.27
2018-11-14T06:15:31.407Z,18.70
2018-11-14T06:20:31.788Z,14.87
2018-11-14T06:25:31.705Z,19.03
2018-11-14T06:30:30.647Z,15.13
2018-11-14T06:35:29.259Z,22.60
2018-11-14T06:40:28.012Z,19.80
2018-11-14T06:45:29.635Z,17.40
2018-11-14T06:50:28.275Z,17.60
2018-11-14T06:55:26.927Z,20.73
2018-11-14T07:00:35.023Z,18.53
2018-11-14T07:05:33.733Z,26.13
2018-11-14T07:10:33.839Z,19.70
2018-11-14T07:15:32.751Z,17.33
2018-11-14T07:20:32.753Z,19.67
2018-11-14T07:25:31.397Z,20.40
2018-11-14T07:30:32.094Z,15.90
2018-11-14T07:35:30.711Z,18.50
2018-11-14T07:40:29.360Z,20.20
2018-11-14T07:45:27.999Z,26.13
2018-11-14T07:50:26.712Z,15.03
2018-11-14T07:55:25.315Z,20.10
2018-11-14T08:00:24.002Z,18.53
2018-11-14T08:05:22.717Z,18.40
2018-11-14T08:10:21.411Z,20.03
2018-11-14T08:15:20.019Z,19.53
2018-11-14T08:20:18.620Z,19.60
2018-11-14T08:25:17.228Z,16.40
2018-11-14T08:30:15.923Z,27.27
2018-11-14T08:35:14.588Z,23.63
2018-11-14T08:40:13.223Z,24.67
2018-11-14T08:45:12.650Z,22.13
2018-11-14T08:50:13.817Z,28.17
2018-11-14T08:55:13.293Z,22.87
2018-11-14T09:00:14.495Z,15.60
2018-11-14T09:05:13.191Z,16.07
2018-11-14T09:10:17.572Z,25.07
2018-11-14T09:15:17.798Z,13.60
2018-11-14T09:20:32.065Z,15.70
2018-11-14T09:25:31.748Z,15.03
2018-11-14T09:30:30.488Z,17.10
2018-11-14T09:35:29.484Z,21.30
2018-11-14T09:40:28.932Z,21.67
2018-11-14T09:45:28.719Z,20.77
2018-11-14T09:50:28.723Z,21.67
2018-11-14T09:55:27.350Z,15.60
2018-11-14T10:00:27.283Z,15.90
2018-11-14T10:05:26.108Z,19.87
2018-11-14T10:10:25.012Z,15.73
2018-11-14T10:15:24.324Z,11.83
2018-11-14T10:20:24.032Z,15.83
2018-11-14T10:25:22.651Z,15.70
2018-11-14T10:30:22.888Z,16.27
2018-11-14T10:35:21.647Z,15.57
2018-11-14T10:40:23.446Z,22.80
2018-11-14T10:45:23.279Z,18.50
2018-11-14T10:50:23.215Z,16.90
2018-11-14T10:55:22.259Z,16.73
2018-11-14T11:00:27.687Z,24.00
2018-11-14T11:05:31.757Z,15.57
2018-11-14T11:10:35.831Z,17.57
2018-11-14T11:15:40.188Z,16.23
2018-11-14T11:20:39.072Z,19.77
2018-11-14T11:25:37.745Z,23.83
2018-11-14T11:30:36.710Z,15.97
2018-11-14T11:35:35.334Z,17.47
2018-11-14T11:40:34.504Z,15.10
2018-11-14T11:45:33.927Z,12.40
2018-11-14T11:50:32.540Z,13.90
2018-11-14T11:55:31.231Z,17.40
2018-11-14T12:00:30.523Z,14.93
2018-11-14T12:05:29.033Z,14.60
2018-11-14T12:10:27.674Z,14.70
2018-11-14T12:15:26.247Z,14.40
2018-11-14T12:20:24.919Z,14.43
2018-11-14T12:25:23.539Z,16.83
2018-11-14T12:30:22.224Z,17.70
2018-11-14T12:35:20.900Z,9.70
2018-11-14T12:40:19.492Z,23.43
2018-11-14T12:45:18.203Z,19.63
2018-11-14T12:50:16.815Z,20.93
2018-11-14T12:55:16.872Z,19.63
2018-11-14T13:00:17.010Z,16.13
2018-11-14T13:05:18.498Z,16.60
2018-11-14T13:10:27.109Z,15.83
2018-11-14T13:15:25.782Z,14.70
2018-11-14T13:20:25.024Z,17.60
2018-11-14T13:25:23.638Z,16.63
2018-11-14T13:30:23.559Z,20.90
2018-11-14T13:35:22.967Z,13.90
2018-11-14T13:40:21.483Z,16.27
2018-11-14T13:45:20.271Z,17.37
2018-11-14T13:50:20.964Z,22.67
2018-11-14T13:55:20.347Z,19.33
2018-11-14T14:00:20.174Z,12.37
2018-11-14T14:05:19.917Z,12.90
2018-11-14T14:10:18.907Z,12.93
2018-11-14T14:15:18.932Z,14.53
2018-11-14T14:20:18.156Z,25.17
2018-11-14T14:25:18.088Z,15.10
2018-11-14T14:30:19.063Z,14.93
2018-11-14T14:35:18.867Z,18.30
2018-11-14T14:40:19.670Z,22.00
2018-11-14T14:45:21.821Z,16.77
2018-11-14T14:50:20.937Z,11.37
2018-11-14T14:55:23.576Z,20.10
2018-11-14T15:00:23.848Z,16.73
2018-11-14T15:05:22.523Z,16.30
2018-11-14T15:10:22.279Z,23.40
2018-11-14T15:15:21.213Z,14.20
2018-11-14T15:20:23.994Z,11.43
2018-11-14T15:25:23.490Z,17.40
2018-11-14T15:30:23.821Z,13.10
2018-11-14T15:35:22.533Z,18.27
2018-11-14T15:40:22.458Z,14.03
2018-11-14T15:45:25.900Z,15.97
2018-11-14T15:50:25.920Z,21.57
2018-11-14T15:55:24.719Z,11.73
2018-11-14T16:00:29.562Z,19.73
2018-11-14T16:05:29.205Z,14.57
2018-11-14T16:10:28.799Z,17.80
2018-11-14T16:15:30.055Z,19.13
2018-11-14T16:20:28.863Z,18.17
2018-11-14T16:25:28.120Z,14.33
2018-11-14T16:30:28.007Z,19.93
2018-11-14T16:35:26.645Z,12.00
2018-11-14T16:40:26.693Z,20.40
2018-11-14T16:45:25.346Z,18.60
2018-11-14T16:50:24.383Z,23.97
2018-11-14T16:55:23.406Z,16.10
2018-11-14T17:00:26.388Z,24.23
2018-11-14T17:05:26.116Z,26.00
2018-11-14T17:10:25.000Z,31.93
2018-11-14T17:15:24.656Z,16.23
2018-11-14T17:20:23.767Z,18.00
2018-11-14T17:25:22.485Z,35.27
2018-11-14T17:30:22.395Z,22.30
2018-11-14T17:35:21.034Z,19.93
2018-11-14T17:40:22.132Z,26.27
2018-11-14T17:45:22.880Z,31.07
2018-11-14T17:50:25.029Z,31.30
2018-11-14T17:55:24.873Z,28.10
2018-11-14T18:00:24.854Z,25.40
2018-11-14T18:05:24.760Z,33.53
2018-11-14T18:10:24.690Z,33.70
2018-11-14T18:15:23.329Z,32.67
2018-11-14T18:20:23.528Z,34.97
2018-11-14T18:25:22.159Z,30.93
2018-11-14T18:30:22.317Z,32.90
2018-11-14T18:35:21.878Z,34.23
2018-11-14T18:40:21.810Z,33.87
2018-11-14T18:45:22.972Z,45.17
2018-11-14T18:50:22.129Z,32.83
2018-11-14T18:55:22.260Z,27.10
2018-11-14T19:00:22.462Z,31.63
2018-11-14T19:05:21.260Z,31.83
2018-11-14T19:10:21.395Z,47.87
2018-11-14T19:15:21.323Z,34.27
2018-11-14T19:20:21.359Z,32.67
2018-11-14T19:25:21.300Z,34.33
2018-11-14T19:30:21.290Z,30.50
2018-11-14T19:35:20.007Z,40.93
2018-11-14T19:40:19.951Z,33.37
2018-11-14T19:45:20.127Z,30.53
2018-11-14T19:50:19.841Z,39.17
2018-11-14T19:55:20.069Z,28.13
2018-11-14T20:00:21.310Z,34.23
2018-11-14T20:05:20.431Z,34.83
2018-11-14T20:10:21.415Z,31.37
2018-11-14T20:15:21.398Z,34.93
2018-11-14T20:20:23.294Z,31.00
2018-11-14T20:25:21.936Z,35.70
2018-11-14T20:30:23.859Z,31.17
2018-11-14T20:35:23.219Z,33.47
2018-11-14T20:40:22.294Z,35.10
2018-11-14T20:45:22.539Z,36.63
2018-11-14T20:50:22.229Z,27.83
2018-11-14T20:55:20.876Z,35.30
2018-11-14T21:00:22.416Z,33.40
2018-11-14T21:05:21.221Z,34.60
2018-11-14T21:10:21.279Z,32.20
2018-11-14T21:15:22.667Z,32.83
2018-11-14T21:20:21.320Z,27.00
2018-11-14T21:25:20.767Z,29.87
2018-11-14T21:30:20.902Z,32.10
2018-11-14T21:35:24.163Z,27.87
2018-11-14T21:40:22.866Z,27.77
2018-11-14T21:45:28.404Z,33.37
2018-11-14T21:50:27.980Z,36.40
2018-11-14T21:55:26.625Z,26.83
2018-11-14T22:00:29.694Z,27.63
2018-11-14T22:05:28.328Z,31.87
2018-11-14T22:10:27.207Z,29.07
2018-11-14T22:15:27.227Z,28.17
2018-11-14T22:20:26.671Z,29.80
2018-11-14T22:25:26.176Z,24.80
2018-11-14T22:30:28.452Z,33.23
2018-11-14T22:35:28.252Z,18.63
2018-11-14T22:40:28.018Z,24.90
2018-11-14T22:45:28.026Z,28.20
2018-11-14T22:50:27.062Z,22.10
2018-11-14T22:55:26.154Z,21.30
2018-11-14T23:00:30.102Z,33.43
2018-11-14T23:05:29.000Z,30.27
2018-11-14T23:10:28.004Z,23.90
2018-11-14T23:15:26.692Z,24.60
2018-11-14T23:20:25.324Z,21.93
2018-11-14T23:25:24.302Z,29.07
2018-11-14T23:30:23.928Z,31.13
2018-11-14T23:35:23.861Z,19.80
2018-11-14T23:40:22.664Z,26.00
2018-11-14T23:45:22.182Z,28.67
2018-11-14T23:50:22.114Z,31.33
2018-11-14T23:55:21.529Z,22.30
